Time;durP1;ratioP1;P1;durP2;ratioP2;P2;SDS_P1;SDS_P2;PMS_P1;PMS_P2;Temp;Humidity;BMP_temperature;BMP_pressure;BME280_temperature;BME280_humidity;BME280_pressure;Samples;Min_cycle;Max_cycle;Signal;HPM_P1;HPM_P2
2022/10/26 00:00:42;;;;;;;10.95;5.57;;;;;;;11.51;80.66;101294.34;4770973;29;20061;-92
2022/10/26 00:03:08;;;;;;;10.07;5.20;;;;;;;11.50;80.68;101282.03;4780597;30;20106;-91
2022/10/26 00:05:33;;;;;;;8.35;5.28;;;;;;;11.59;80.82;101302.88;4777007;30;20114;-92
2022/10/26 00:08:00;;;;;;;10.65;4.75;;;;;;;11.57;80.76;101288.84;4782622;29;20028;-92
2022/10/26 00:10:25;;;;;;;7.75;4.90;;;;;;;11.48;80.59;101287.41;4777566;30;20061;-92
2022/10/26 00:12:51;;;;;;;10.25;5.30;;;;;;;11.55;81.12;101281.84;4775221;30;20118;-93
2022/10/26 00:15:20;;;;;;;7.45;4.72;;;;;;;11.53;80.68;101275.78;4776450;29;20392;-92
2022/10/26 00:17:46;;;;;;;9.45;5.03;;;;;;;11.52;80.86;101280.22;4784680;29;20047;-92
2022/10/26 00:20:12;;;;;;;10.27;5.35;;;;;;;11.52;81.18;101274.91;4770028;29;20578;-91
2022/10/26 00:22:38;;;;;;;9.73;4.70;;;;;;;11.56;81.65;101263.25;4782433;29;20027;-93
2022/10/26 00:25:03;;;;;;;8.40;4.32;;;;;;;11.63;81.34;101266.56;4796112;29;20049;-92
2022/10/26 00:27:29;;;;;;;8.75;5.00;;;;;;;11.66;81.30;101261.16;4801657;29;20027;-91
2022/10/26 00:29:54;;;;;;;8.30;5.15;;;;;;;11.68;81.38;101259.28;4778719;29;20066;-91
2022/10/26 00:32:19;;;;;;;9.25;5.32;;;;;;;11.62;82.32;101257.75;4802084;29;20027;-92
2022/10/26 00:34:44;;;;;;;8.45;4.88;;;;;;;11.63;82.20;101263.91;4795464;29;20548;-91
2022/10/26 00:37:10;;;;;;;7.78;5.30;;;;;;;11.66;82.25;101267.31;4780686;30;20031;-93
2022/10/26 00:39:35;;;;;;;8.50;4.90;;;;;;;11.68;82.21;101252.22;4780238;29;20066;-91
2022/10/26 00:42:00;;;;;;;7.85;4.70;;;;;;;11.74;82.02;101241.38;4776501;29;20034;-92
2022/10/26 00:44:42;;;;;;;8.82;4.40;;;;;;;11.84;81.46;101241.03;4776798;29;20083;-93
2022/10/26 00:47:24;;;;;;;9.50;5.68;;;;;;;11.90;81.98;101244.34;4803562;29;20027;-92
2022/10/26 00:49:54;;;;;;;8.63;5.85;;;;;;;11.80;82.52;101250.00;4775634;29;20451;-90
2022/10/26 00:52:21;;;;;;;9.50;5.65;;;;;;;11.89;82.13;101266.47;4763493;29;20041;-92
2022/10/26 00:54:46;;;;;;;10.20;5.75;;;;;;;11.86;82.11;101265.72;4792113;29;20420;-91
2022/10/26 00:57:15;;;;;;;12.60;5.78;;;;;;;11.99;81.57;101267.81;4804029;29;20037;-92
2022/10/26 00:59:42;;;;;;;11.82;5.57;;;;;;;12.04;81.60;101272.09;4791790;29;20042;-91
2022/10/26 01:02:08;;;;;;;11.88;6.35;;;;;;;12.07;81.41;101256.91;4787359;29;20035;-93
2022/10/26 01:04:34;;;;;;;10.77;6.40;;;;;;;12.07;81.45;101256.03;4791947;29;20106;-90
2022/10/26 01:07:03;;;;;;;11.35;6.32;;;;;;;12.12;82.18;101254.94;4796342;29;20029;-92
2022/10/26 01:09:30;;;;;;;11.88;6.28;;;;;;;12.00;82.00;101237.75;4791979;29;20480;-91
2022/10/26 01:11:56;;;;;;;9.75;5.93;;;;;;;12.06;82.11;101244.59;4787352;29;20047;-91
2022/10/26 01:14:23;;;;;;;7.03;5.55;;;;;;;12.05;81.74;101242.00;4775747;29;20039;-92
2022/10/26 01:17:03;;;;;;;11.82;6.28;;;;;;;12.08;82.05;101242.75;4785052;29;20031;-93
2022/10/26 01:19:56;;;;;;;8.63;6.22;;;;;;;12.11;81.77;101234.66;4772004;30;20158;-92
2022/10/26 01:22:58;;;;;;;10.40;6.22;;;;;;;12.15;81.72;101238.06;4790989;29;20232;-93
2022/10/26 01:25:45;;;;;;;10.77;6.07;;;;;;;12.18;81.51;101246.75;4780904;29;20320;-92
2022/10/26 01:28:29;;;;;;;11.02;5.80;;;;;;;12.08;81.87;101233.94;4782178;29;20767;-92
2022/10/26 01:30:57;;;;;;;9.55;6.25;;;;;;;12.10;82.11;101230.28;4775550;29;20115;-92
2022/10/26 01:33:35;;;;;;;10.70;6.43;;;;;;;12.16;81.47;101230.03;4796277;29;20034;-92
2022/10/26 01:36:32;;;;;;;10.10;6.35;;;;;;;12.24;81.27;101235.03;4793347;29;20039;-92
2022/10/26 01:39:12;;;;;;;10.15;6.05;;;;;;;12.18;81.90;101230.84;4779401;29;20043;-92
2022/10/26 01:41:50;;;;;;;8.43;5.72;;;;;;;12.12;82.10;101224.91;4773178;29;20524;-92
2022/10/26 01:44:40;;;;;;;9.07;5.72;;;;;;;12.10;82.02;101217.03;4779625;30;20098;-91
2022/10/26 01:47:07;;;;;;;6.88;6.07;;;;;;;12.06;82.13;101220.72;4806647;29;20472;-92
2022/10/26 01:49:37;;;;;;;10.25;6.15;;;;;;;12.03;82.38;101212.03;4804169;29;20035;-90
2022/10/26 01:52:03;;;;;;;8.32;5.78;;;;;;;12.15;82.50;101216.84;4803565;29;20544;-92
2022/10/26 01:54:28;;;;;;;10.52;5.55;;;;;;;12.10;82.17;101211.75;4778618;30;20034;-92
2022/10/26 01:57:02;;;;;;;9.93;5.32;;;;;;;12.04;82.38;101205.84;4807002;29;20076;-93
2022/10/26 01:59:33;;;;;;;7.82;5.72;;;;;;;12.11;82.22;101213.44;4790411;29;20030;-92
2022/10/26 02:02:10;;;;;;;9.25;5.50;;;;;;;12.10;82.08;101195.84;4789314;29;20034;-93
2022/10/26 02:05:06;;;;;;;8.40;4.95;;;;;;;12.17;81.67;101204.38;4798752;29;20035;-94
2022/10/26 02:07:58;;;;;;;7.25;4.80;;;;;;;12.13;81.38;101200.16;4805678;29;20114;-94
2022/10/26 02:10:52;;;;;;;10.63;5.53;;;;;;;12.07;81.56;101201.25;4766249;29;20081;-91
2022/10/26 02:13:33;;;;;;;10.63;5.00;;;;;;;11.96;81.33;101207.00;4785602;29;20031;-93
2022/10/26 02:16:22;;;;;;;11.73;5.00;;;;;;;11.84;81.78;101190.72;4778582;29;20034;-93
2022/10/26 02:18:55;;;;;;;8.85;5.72;;;;;;;11.86;82.13;101196.84;4775020;30;20059;-92
2022/10/26 02:21:27;;;;;;;14.68;5.18;;;;;;;11.88;81.92;101179.06;4784604;29;20114;-93
2022/10/26 02:23:56;;;;;;;7.00;5.25;;;;;;;11.98;81.30;101183.97;4777031;29;20481;-91
2022/10/26 02:26:26;;;;;;;12.10;5.70;;;;;;;11.89;81.76;101194.03;4779583;29;20053;-93
2022/10/26 02:28:55;;;;;;;6.40;5.07;;;;;;;11.91;81.89;101189.56;4781633;30;20046;-93
2022/10/26 02:31:24;;;;;;;9.23;4.93;;;;;;;11.86;81.69;101188.88;4782212;29;20126;-94
2022/10/26 02:33:52;;;;;;;7.93;5.00;;;;;;;11.86;82.03;101191.53;4775743;29;20031;-92
2022/10/26 02:36:31;;;;;;;6.63;4.88;;;;;;;11.88;82.30;101184.38;4788823;29;20039;-92
2022/10/26 02:38:58;;;;;;;12.98;4.93;;;;;;;11.97;82.37;101176.06;4763381;30;20046;-92
2022/10/26 02:41:30;;;;;;;7.13;4.20;;;;;;;11.86;82.44;101165.91;4776879;29;20503;-93
2022/10/26 02:44:21;;;;;;;11.90;4.97;;;;;;;11.98;82.11;101176.00;4773478;30;20041;-92
2022/10/26 02:46:50;;;;;;;9.00;4.50;;;;;;;11.99;81.79;101169.78;4743168;29;20138;-91
2022/10/26 02:49:16;;;;;;;11.30;5.05;;;;;;;12.00;81.87;101173.28;4784768;30;20033;-92
2022/10/26 02:51:48;;;;;;;11.00;4.95;;;;;;;11.93;82.24;101171.81;4773883;29;20035;-92
2022/10/26 02:54:27;;;;;;;9.90;4.25;;;;;;;11.98;81.68;101169.81;4770717;30;20027;-93
2022/10/26 02:57:11;;;;;;;7.75;4.32;;;;;;;12.00;81.64;101171.50;4782008;29;20070;-93
2022/10/26 02:59:40;;;;;;;6.97;3.88;;;;;;;11.98;82.24;101169.81;4776741;29;20070;-93
2022/10/26 03:02:05;;;;;;;10.55;3.97;;;;;;;12.04;81.57;101171.38;4788450;29;20031;-90
2022/10/26 03:04:33;;;;;;;7.82;3.65;;;;;;;11.94;81.88;101163.81;4776324;29;20031;-92
2022/10/26 03:06:59;;;;;;;6.25;4.13;;;;;;;11.95;81.57;101160.22;4783707;29;20035;-91
2022/10/26 03:09:24;;;;;;;9.38;3.65;;;;;;;11.94;81.78;101162.94;4774997;30;20058;-92
2022/10/26 03:11:49;;;;;;;5.43;3.30;;;;;;;11.95;81.86;101168.19;4780063;29;20050;-91
2022/10/26 03:14:15;;;;;;;6.85;3.60;;;;;;;11.93;81.23;101153.25;4775207;30;20460;-92
2022/10/26 03:16:40;;;;;;;10.48;3.85;;;;;;;11.97;82.10;101160.16;4774009;29;20084;-91
2022/10/26 03:19:05;;;;;;;9.02;4.00;;;;;;;11.86;82.12;101155.31;4774700;30;20055;-93
2022/10/26 03:21:31;;;;;;;8.70;3.78;;;;;;;11.93;82.35;101163.84;4787866;29;20110;-92
2022/10/26 03:23:56;;;;;;;4.32;3.50;;;;;;;11.92;82.33;101156.84;4787198;29;20035;-93
2022/10/26 03:26:21;;;;;;;10.43;3.50;;;;;;;11.88;82.79;101157.88;4785679;30;20038;-93
2022/10/26 03:28:47;;;;;;;8.80;3.83;;;;;;;11.88;82.57;101152.56;4786981;29;20035;-92
2022/10/26 03:31:12;;;;;;;8.23;4.22;;;;;;;11.93;82.69;101161.19;4784334;29;20486;-92
2022/10/26 03:33:37;;;;;;;8.60;3.95;;;;;;;11.96;82.46;101164.59;4775022;30;20034;-93
2022/10/26 03:36:03;;;;;;;12.52;3.85;;;;;;;11.95;82.84;101154.94;4780184;30;20497;-93
2022/10/26 03:38:28;;;;;;;6.65;3.35;;;;;;;12.03;82.25;101154.63;4758840;30;20100;-91
2022/10/26 03:40:53;;;;;;;9.23;3.67;;;;;;;12.07;82.04;101163.28;4780705;30;20071;-92
2022/10/26 03:43:19;;;;;;;4.35;3.47;;;;;;;12.04;82.10;101153.69;4771427;30;20047;-92
2022/10/26 03:45:44;;;;;;;10.48;3.53;;;;;;;12.05;81.99;101149.25;4781325;29;20504;-92
2022/10/26 03:48:10;;;;;;;5.93;3.70;;;;;;;12.02;82.36;101152.03;4787103;29;20038;-92
2022/10/26 03:50:35;;;;;;;6.82;3.53;;;;;;;12.02;82.61;101155.53;4769850;30;20023;-93
2022/10/26 03:53:00;;;;;;;9.65;3.50;;;;;;;12.02;81.47;101155.53;4782224;30;20035;-93
2022/10/26 03:55:26;;;;;;;6.97;3.03;;;;;;;11.94;82.41;101147.06;4775547;29;20027;-92
2022/10/26 03:57:51;;;;;;;7.80;3.25;;;;;;;11.97;82.20;101144.25;4775640;30;20107;-93
2022/10/26 04:00:17;;;;;;;9.25;4.07;;;;;;;11.96;82.07;101146.03;4780877;29;20074;-92
2022/10/26 04:02:45;;;;;;;7.20;3.63;;;;;;;12.00;82.60;101158.25;4796364;29;20027;-94
2022/10/26 04:05:11;;;;;;;6.57;3.70;;;;;;;11.92;82.52;101146.25;4780573;29;20070;-92
2022/10/26 04:07:36;;;;;;;5.80;3.20;;;;;;;11.86;82.48;101136.75;4780478;29;20054;-92
2022/10/26 04:10:02;;;;;;;8.95;3.65;;;;;;;11.88;82.72;101148.13;4780456;30;20032;-92
2022/10/26 04:12:27;;;;;;;7.63;3.50;;;;;;;11.81;83.33;101141.34;4800545;29;20080;-92
2022/10/26 04:14:53;;;;;;;5.72;3.30;;;;;;;11.95;82.73;101146.13;4768390;30;20031;-93
2022/10/26 04:17:18;;;;;;;8.18;3.92;;;;;;;11.97;83.12;101158.38;4780401;30;20031;-93
2022/10/26 04:19:43;;;;;;;12.45;3.90;;;;;;;12.01;82.44;101151.16;4793602;29;20051;-92
2022/10/26 04:22:08;;;;;;;6.38;3.22;;;;;;;12.04;82.25;101145.75;4783599;29;20479;-91
2022/10/26 04:24:34;;;;;;;4.55;3.45;;;;;;;12.08;82.70;101154.44;4792995;29;20034;-92
2022/10/26 04:26:59;;;;;;;6.15;3.17;;;;;;;12.09;82.32;101146.41;4780059;30;20031;-93
2022/10/26 04:29:24;;;;;;;6.93;3.00;;;;;;;12.11;82.46;101139.25;4795786;29;20487;-93
2022/10/26 04:31:50;;;;;;;8.10;3.67;;;;;;;12.15;82.39;101148.78;4804371;29;20293;-93
2022/10/26 04:34:15;;;;;;;6.03;3.35;;;;;;;12.12;82.43;101130.34;4783339;29;20038;-92
2022/10/26 04:36:40;;;;;;;6.60;3.20;;;;;;;12.13;82.81;101142.72;4797596;29;20031;-91
2022/10/26 04:39:05;;;;;;;10.10;3.28;;;;;;;12.14;82.11;101132.97;4785581;29;20035;-93
2022/10/26 04:41:31;;;;;;;8.98;2.83;;;;;;;12.18;82.43;101139.88;4771340;29;20053;-91
2022/10/26 04:43:56;;;;;;;5.30;2.95;;;;;;;12.21;82.34;101139.72;4780763;29;20118;-92
2022/10/26 04:46:22;;;;;;;4.88;3.17;;;;;;;12.20;82.75;101127.41;4782852;29;20026;-92
2022/10/26 04:48:47;;;;;;;5.13;2.97;;;;;;;12.22;82.45;101126.41;4785737;29;20030;-93
2022/10/26 04:51:12;;;;;;;8.63;3.28;;;;;;;12.27;82.61;101128.03;4776201;30;20034;-92
2022/10/26 04:53:38;;;;;;;6.40;3.30;;;;;;;12.30;82.81;101122.56;4787336;29;20038;-92
2022/10/26 04:56:03;;;;;;;9.93;3.10;;;;;;;12.29;82.66;101127.00;4797820;29;20072;-92
2022/10/26 04:58:28;;;;;;;11.38;3.35;;;;;;;12.25;82.95;101136.00;4788116;29;20037;-92
2022/10/26 05:00:54;;;;;;;9.70;3.20;;;;;;;12.29;82.87;101139.41;4776404;29;20126;-92
2022/10/26 05:03:19;;;;;;;6.82;3.30;;;;;;;12.30;83.39;101147.28;4798455;29;20122;-91
2022/10/26 05:05:46;;;;;;;8.82;3.58;;;;;;;12.30;83.30;101135.81;4781186;29;20026;-92
2022/10/26 05:08:12;;;;;;;8.48;3.47;;;;;;;12.31;83.50;101149.03;4775753;29;20031;-91
2022/10/26 05:10:37;;;;;;;9.80;3.90;;;;;;;12.33;82.75;101141.88;4792388;29;20567;-91
2022/10/26 05:13:03;;;;;;;4.97;3.03;;;;;;;12.35;82.84;101137.34;4798918;29;20031;-93
2022/10/26 05:15:28;;;;;;;8.45;3.50;;;;;;;12.37;83.00;101145.25;4784412;29;20024;-92
2022/10/26 05:17:58;;;;;;;6.03;3.65;;;;;;;12.42;82.72;101145.91;4800883;29;20133;-93
2022/10/26 05:20:28;;;;;;;5.40;3.20;;;;;;;12.43;82.79;101144.97;4792263;29;20366;-92
2022/10/26 05:22:55;;;;;;;10.63;3.83;;;;;;;12.46;83.34;101144.88;4781009;29;20113;-93
2022/10/26 05:25:20;;;;;;;5.55;3.67;;;;;;;12.48;83.02;101150.94;4776261;29;20066;-93
2022/10/26 05:27:45;;;;;;;11.88;4.65;;;;;;;12.50;82.79;101151.75;4788072;29;20106;-93
2022/10/26 05:30:11;;;;;;;8.88;3.85;;;;;;;12.52;82.75;101149.88;4775669;29;20066;-92
2022/10/26 05:32:36;;;;;;;8.65;3.83;;;;;;;12.51;83.08;101146.38;4764034;29;20034;-87
2022/10/26 05:35:02;;;;;;;6.55;3.35;;;;;;;12.57;82.64;101158.50;4775441;30;20050;-87
2022/10/26 05:37:28;;;;;;;7.15;3.83;;;;;;;12.51;83.01;101149.03;4774519;30;20546;-87
2022/10/26 05:39:53;;;;;;;5.32;3.65;;;;;;;12.54;82.93;101148.03;4790724;29;20157;-87
2022/10/26 05:42:19;;;;;;;8.15;3.80;;;;;;;12.53;82.67;101143.66;4775486;29;20066;-86
2022/10/26 05:44:45;;;;;;;6.63;3.80;;;;;;;12.57;82.72;101149.69;4774669;29;20020;-88
2022/10/26 05:47:10;;;;;;;8.40;4.25;;;;;;;12.61;83.02;101157.44;4791108;29;20030;-87
2022/10/26 05:49:35;;;;;;;10.40;4.15;;;;;;;12.61;82.79;101152.16;4783957;29;20105;-87
2022/10/26 05:52:01;;;;;;;8.68;3.58;;;;;;;12.59;82.36;101148.72;4785062;29;20031;-87
2022/10/26 05:54:26;;;;;;;6.65;3.42;;;;;;;12.61;82.64;101144.19;4785185;29;20035;-87
2022/10/26 05:56:51;;;;;;;12.73;4.15;;;;;;;12.59;82.53;101143.41;4801607;29;20483;-87
2022/10/26 05:59:17;;;;;;;7.75;3.72;;;;;;;12.71;82.02;101150.81;4791946;29;20057;-87
2022/10/26 06:02:02;;;;;;;7.18;3.85;;;;;;;12.80;82.53;101161.94;4789851;29;20076;-87
2022/10/26 06:04:46;;;;;;;8.27;3.63;;;;;;;12.90;82.36;101172.06;4790981;29;20120;-87
2022/10/26 06:07:18;;;;;;;9.07;4.20;;;;;;;12.77;82.27;101170.88;4793886;29;20380;-87
2022/10/26 06:09:44;;;;;;;7.03;3.78;;;;;;;12.73;82.69;101166.69;4784679;29;20027;-87
2022/10/26 06:12:10;;;;;;;5.50;3.85;;;;;;;12.78;82.45;101180.59;4792388;29;20050;-87
2022/10/26 06:14:36;;;;;;;7.15;3.83;;;;;;;12.76;82.19;101171.81;4788959;29;20117;-86
2022/10/26 06:17:10;;;;;;;4.40;3.40;;;;;;;12.84;82.26;101190.94;4783126;29;20109;-88
2022/10/26 06:19:50;;;;;;;10.80;3.83;;;;;;;12.87;81.68;101177.53;4798024;29;20519;-87
2022/10/26 06:22:38;;;;;;;5.82;3.28;;;;;;;12.84;82.04;101196.25;4802682;29;20030;-86
2022/10/26 06:25:06;;;;;;;8.55;4.13;;;;;;;12.76;82.67;101193.91;4777743;29;20050;-87
2022/10/26 06:27:55;;;;;;;8.77;3.80;;;;;;;12.65;82.10;101176.75;4781322;29;20066;-87
2022/10/26 06:30:22;;;;;;;8.25;4.10;;;;;;;12.57;82.65;101177.06;4779861;29;20057;-87
2022/10/26 06:32:49;;;;;;;6.93;3.75;;;;;;;12.49;82.50;101172.09;4800021;29;20038;-87
2022/10/26 06:35:44;;;;;;;10.10;3.72;;;;;;;12.60;82.26;101184.91;4800026;29;20034;-87
2022/10/26 06:38:14;;;;;;;10.05;3.83;;;;;;;12.45;82.27;101174.94;4768854;30;20098;-87
2022/10/26 06:40:42;;;;;;;9.75;3.78;;;;;;;12.43;82.31;101182.97;4780758;30;20047;-87
2022/10/26 06:43:12;;;;;;;7.60;4.20;;;;;;;12.37;82.60;101171.78;4794527;29;20022;-88
2022/10/26 06:45:42;;;;;;;4.57;4.05;;;;;;;12.36;82.73;101164.75;4782879;29;20109;-87
2022/10/26 06:48:13;;;;;;;10.40;3.92;;;;;;;12.46;82.82;101181.97;4792915;29;20028;-87
2022/10/26 06:50:52;;;;;;;9.53;4.00;;;;;;;12.52;82.56;101177.28;4788885;29;20046;-86
2022/10/26 06:53:34;;;;;;;10.38;4.13;;;;;;;12.47;82.92;101166.00;4799879;29;20285;-87
2022/10/26 06:56:00;;;;;;;6.75;4.00;;;;;;;12.53;83.04;101172.81;4783245;29;20035;-87
2022/10/26 06:58:33;;;;;;;6.57;4.07;;;;;;;12.50;83.22;101154.41;4788081;29;20038;-86
2022/10/26 07:00:59;;;;;;;9.55;4.40;;;;;;;12.59;82.93;101161.97;4774461;29;20054;-87
2022/10/26 07:03:24;;;;;;;7.05;3.97;;;;;;;12.64;83.32;101177.69;4805930;29;20484;-86
2022/10/26 07:05:50;;;;;;;6.55;3.72;;;;;;;12.69;82.78;101171.25;4793959;29;20162;-86
2022/10/26 07:08:16;;;;;;;6.60;3.72;;;;;;;12.73;83.45;101175.50;4797371;29;20023;-87
2022/10/26 07:10:42;;;;;;;9.45;4.07;;;;;;;12.71;82.60;101161.41;4777096;30;20522;-87
2022/10/26 07:13:08;;;;;;;9.38;3.80;;;;;;;12.79;82.68;101186.75;4799777;29;20034;-87
2022/10/26 07:15:35;;;;;;;8.45;4.18;;;;;;;12.76;82.99;101185.09;4784707;29;20027;-86
2022/10/26 07:18:04;;;;;;;9.25;4.13;;;;;;;12.77;82.64;101187.66;4798622;29;20054;-86
2022/10/26 07:20:31;;;;;;;8.57;3.90;;;;;;;12.81;82.31;101187.53;4776196;29;20627;-86
2022/10/26 07:22:56;;;;;;;9.48;4.50;;;;;;;12.79;82.23;101187.63;4783108;29;20038;-86
2022/10/26 07:25:24;;;;;;;8.27;4.07;;;;;;;12.88;82.57;101205.78;4799551;29;20121;-87
2022/10/26 07:27:49;;;;;;;6.75;3.95;;;;;;;12.87;82.70;101198.78;4793298;29;20035;-87
2022/10/26 07:30:14;;;;;;;6.28;4.00;;;;;;;12.90;82.59;101201.28;4804460;29;20053;-87
2022/10/26 07:32:40;;;;;;;7.93;3.72;;;;;;;12.94;82.30;101215.28;4783052;30;20031;-88
2022/10/26 07:35:05;;;;;;;7.65;3.92;;;;;;;13.00;82.27;101215.84;4798830;29;20050;-89
2022/10/26 07:37:31;;;;;;;7.20;3.80;;;;;;;13.19;81.81;101225.66;4764458;30;20032;-87
2022/10/26 07:39:56;;;;;;;6.75;4.40;;;;;;;13.20;82.03;101225.59;4792564;29;20039;-88
2022/10/26 07:42:21;;;;;;;9.32;4.15;;;;;;;13.24;81.89;101223.69;4793254;29;20088;-87
2022/10/26 07:44:47;;;;;;;7.13;4.50;;;;;;;13.33;81.45;101217.09;4792820;29;20033;-88
2022/10/26 07:47:12;;;;;;;8.57;4.38;;;;;;;13.47;81.51;101234.13;4798649;29;20065;-87
2022/10/26 07:49:38;;;;;;;6.63;3.65;;;;;;;13.50;81.80;101227.81;4786564;29;20031;-87
2022/10/26 07:52:03;;;;;;;6.97;3.97;;;;;;;13.66;81.64;101238.59;4786194;29;20022;-87
2022/10/26 07:54:29;;;;;;;7.22;4.28;;;;;;;14.13;80.47;101236.34;4791713;29;20043;-86
2022/10/26 07:56:54;;;;;;;7.10;4.18;;;;;;;14.44;79.31;101254.31;4797935;29;20477;-86
2022/10/26 07:59:19;;;;;;;6.95;4.40;;;;;;;14.55;77.51;101259.16;4784951;30;20035;-87
2022/10/26 08:01:44;;;;;;;6.95;3.92;;;;;;;14.46;78.89;101254.25;4793485;29;20027;-87
2022/10/26 08:04:10;;;;;;;6.80;4.40;;;;;;;14.61;79.20;101252.66;4793254;29;20476;-86
2022/10/26 08:06:35;;;;;;;7.72;4.18;;;;;;;16.11;74.94;101249.97;4797893;29;20509;-87
2022/10/26 08:09:00;;;;;;;7.25;3.70;;;;;;;17.52;69.89;101255.78;4796422;29;20543;-86
2022/10/26 08:11:26;;;;;;;5.40;3.20;;;;;;;18.64;65.56;101262.78;4792724;29;20034;-87
2022/10/26 08:13:52;;;;;;;5.65;3.40;;;;;;;19.48;62.02;101264.19;4793494;29;20512;-86
2022/10/26 08:16:18;;;;;;;7.03;3.20;;;;;;;19.91;59.70;101266.50;4797890;29;20527;-86
2022/10/26 08:18:43;;;;;;;4.13;2.97;;;;;;;20.27;58.25;101268.31;4795606;29;20050;-86
2022/10/26 08:21:11;;;;;;;7.07;3.03;;;;;;;20.65;56.91;101265.47;4790705;29;20035;-85
2022/10/26 08:23:36;;;;;;;4.53;2.53;;;;;;;21.43;55.64;101251.41;4793423;29;20024;-84
2022/10/26 08:26:02;;;;;;;7.43;2.85;;;;;;;20.73;56.22;101264.91;4781624;30;20470;-86
2022/10/26 08:28:28;;;;;;;4.97;2.38;;;;;;;20.17;57.76;101260.09;4795797;29;20088;-86
2022/10/26 08:30:54;;;;;;;4.93;2.55;;;;;;;20.13;58.40;101262.16;4790889;29;20104;-86
2022/10/26 08:33:20;;;;;;;3.75;2.20;;;;;;;20.96;55.87;101268.53;4793229;29;20409;-86
2022/10/26 08:35:46;;;;;;;4.93;1.90;;;;;;;21.79;53.84;101263.75;4797983;29;20062;-86
2022/10/26 08:38:11;;;;;;;6.10;2.20;;;;;;;22.54;51.61;101273.75;4796786;29;20031;-85
2022/10/26 08:40:40;;;;;;;4.15;2.15;;;;;;;22.80;51.34;101285.06;4798323;29;20347;-85
2022/10/26 08:43:18;;;;;;;3.55;1.80;;;;;;;23.55;51.76;101270.50;4797215;29;20027;-85
2022/10/26 08:45:51;;;;;;;5.05;2.22;;;;;;;24.18;48.83;101279.25;4781336;29;20106;-86
2022/10/26 08:48:23;;;;;;;4.50;2.17;;;;;;;24.56;48.82;101279.47;4789468;29;20026;-84
2022/10/26 08:50:53;;;;;;;3.83;2.00;;;;;;;24.15;46.35;101281.38;4785584;29;20050;-85
2022/10/26 08:53:26;;;;;;;5.63;1.85;;;;;;;23.96;48.60;101284.03;4780904;29;20035;-85
2022/10/26 08:56:16;;;;;;;4.22;1.45;;;;;;;24.27;48.25;101269.47;4795614;29;20031;-85
2022/10/26 08:58:48;;;;;;;5.05;2.00;;;;;;;24.26;47.89;101270.47;4772967;30;20535;-84
2022/10/26 09:01:14;;;;;;;4.45;2.03;;;;;;;24.75;45.70;101268.66;4789185;29;20394;-85
2022/10/26 09:03:39;;;;;;;3.67;1.90;;;;;;;25.50;45.00;101269.66;4795156;29;20027;-84
2022/10/26 09:06:08;;;;;;;2.88;1.80;;;;;;;25.94;44.16;101257.25;4796935;29;20031;-85
2022/10/26 09:09:14;;;;;;;4.18;1.70;;;;;;;26.24;45.77;101251.63;4792417;29;20026;-85
2022/10/26 09:12:08;;;;;;;3.25;1.65;;;;;;;26.88;43.96;101266.84;4787365;29;20496;-85
2022/10/26 09:14:45;;;;;;;4.15;1.70;;;;;;;27.20;41.55;101267.13;4790478;29;20034;-85
2022/10/26 09:17:25;;;;;;;5.05;1.98;;;;;;;27.74;41.93;101282.38;4787320;29;20051;-85
2022/10/26 09:20:12;;;;;;;6.18;1.90;;;;;;;27.68;42.00;101290.13;4763263;29;20204;-85
2022/10/26 09:23:07;;;;;;;4.10;1.90;;;;;;;28.26;39.50;101301.25;4775797;29;20043;-85
2022/10/26 09:25:40;;;;;;;4.78;1.80;;;;;;;27.75;39.86;101306.69;4756323;30;20082;-85
2022/10/26 09:28:14;;;;;;;3.80;2.00;;;;;;;27.98;40.17;101298.81;4783900;30;20031;-85
2022/10/26 09:30:39;;;;;;;4.10;2.00;;;;;;;28.67;38.55;101313.94;4780634;29;20027;-84
2022/10/26 09:33:15;;;;;;;4.95;1.63;;;;;;;28.44;38.82;101318.31;4775688;30;20039;-84
2022/10/26 09:36:02;;;;;;;3.42;1.80;;;;;;;28.75;39.97;101326.72;4778439;29;20028;-84
2022/10/26 09:39:05;;;;;;;5.20;2.38;;;;;;;29.20;39.94;101328.97;4775732;30;20035;-85
2022/10/26 09:41:47;;;;;;;5.13;1.83;;;;;;;28.50;37.65;101333.16;4772770;29;20043;-85
2022/10/26 09:44:30;;;;;;;3.30;1.73;;;;;;;27.81;41.67;101332.34;4776331;30;20036;-86
2022/10/26 09:47:14;;;;;;;4.95;1.98;;;;;;;27.48;41.62;101350.28;4778721;30;20036;-86
2022/10/26 09:49:54;;;;;;;4.38;1.83;;;;;;;27.09;43.01;101351.53;4775953;29;20031;-86
2022/10/26 09:52:20;;;;;;;3.97;2.00;;;;;;;26.09;42.90;101341.59;4764931;29;20051;-86
2022/10/26 09:54:45;;;;;;;3.65;2.10;;;;;;;25.02;44.71;101343.66;4771316;30;20167;-86
2022/10/26 09:57:14;;;;;;;5.85;1.80;;;;;;;24.47;48.31;101345.19;4777392;30;20064;-86
2022/10/26 09:59:40;;;;;;;6.13;1.95;;;;;;;24.88;45.69;101344.09;4781762;30;20058;-86
2022/10/26 10:02:31;;;;;;;4.80;1.83;;;;;;;25.69;46.26;101347.28;4766697;30;20118;-86
2022/10/26 10:04:57;;;;;;;4.72;2.10;;;;;;;25.99;43.93;101351.63;4771750;29;20035;-86
2022/10/26 10:07:22;;;;;;;6.72;1.90;;;;;;;26.69;41.62;101363.66;4775392;30;20111;-86
2022/10/26 10:10:22;;;;;;;5.05;2.40;;;;;;;27.41;42.65;101377.22;4781626;30;20561;-86
2022/10/26 10:12:51;;;;;;;5.53;2.00;;;;;;;27.92;39.18;101372.81;4773105;30;20074;-86
2022/10/26 10:15:24;;;;;;;5.65;2.20;;;;;;;27.99;39.84;101368.44;4777655;30;20123;-86
2022/10/26 10:17:52;;;;;;;3.03;1.80;;;;;;;28.84;38.23;101385.59;4789354;29;20059;-86
2022/10/26 10:20:24;;;;;;;4.20;2.28;;;;;;;28.46;38.98;101378.88;4794126;29;20407;-86
2022/10/26 10:22:54;;;;;;;7.55;2.25;;;;;;;29.20;39.00;101386.16;4800287;29;20042;-86
2022/10/26 10:25:56;;;;;;;5.47;1.70;;;;;;;29.46;39.22;101396.88;4799827;29;20080;-86
2022/10/26 10:28:24;;;;;;;4.60;2.20;;;;;;;29.41;37.07;101396.53;4780909;29;20035;-86
2022/10/26 10:31:01;;;;;;;4.10;2.08;;;;;;;29.64;37.42;101409.50;4800628;29;20050;-86
2022/10/26 10:33:38;;;;;;;5.63;2.20;;;;;;;30.11;37.82;101406.81;4793733;29;20035;-87
2022/10/26 10:36:08;;;;;;;5.78;2.20;;;;;;;30.16;35.83;101407.16;4782118;30;20491;-86
2022/10/26 10:38:40;;;;;;;3.95;1.92;;;;;;;30.31;37.10;101418.22;4785744;29;20034;-86
2022/10/26 10:41:23;;;;;;;4.35;2.08;;;;;;;30.87;34.82;101415.38;4796654;29;20035;-86
2022/10/26 10:44:13;;;;;;;4.65;1.67;;;;;;;30.37;35.71;101427.56;4781855;29;20035;-86
2022/10/26 10:46:38;;;;;;;4.70;2.15;;;;;;;30.01;36.17;101429.88;4785625;29;20054;-86
2022/10/26 10:49:15;;;;;;;6.97;2.00;;;;;;;29.94;35.40;101425.13;4786671;29;20385;-86
2022/10/26 10:51:40;;;;;;;6.10;2.22;;;;;;;30.06;35.18;101430.19;4791080;29;20077;-86
2022/10/26 10:54:21;;;;;;;3.80;2.13;;;;;;;30.60;36.39;101428.47;4796141;29;20031;-86
2022/10/26 10:56:51;;;;;;;6.15;2.20;;;;;;;31.42;34.53;101437.00;4799286;29;20433;-86
2022/10/26 10:59:43;;;;;;;7.28;2.30;;;;;;;31.03;35.48;101436.28;4797838;29;20388;-86
2022/10/26 11:02:38;;;;;;;4.03;2.15;;;;;;;30.23;35.78;101431.88;4795821;29;20553;-86
2022/10/26 11:05:14;;;;;;;4.22;2.20;;;;;;;29.78;36.02;101435.19;4747215;29;20146;-86
2022/10/26 11:08:04;;;;;;;6.53;2.40;;;;;;;28.12;40.77;101450.44;4792488;29;20027;-86
2022/10/26 11:10:36;;;;;;;4.68;2.20;;;;;;;27.16;41.41;101455.75;4793513;29;20039;-87
2022/10/26 11:13:08;;;;;;;4.40;1.95;;;;;;;26.76;42.50;101458.00;4799076;29;20027;-87
2022/10/26 11:15:38;;;;;;;3.10;2.00;;;;;;;26.69;42.83;101455.91;4784462;29;20386;-86
2022/10/26 11:18:15;;;;;;;4.60;2.03;;;;;;;26.14;44.29;101453.13;4758708;30;20377;-86
2022/10/26 11:20:47;;;;;;;5.10;2.00;;;;;;;26.73;43.53;101455.59;4777701;29;20587;-87
2022/10/26 11:23:24;;;;;;;4.60;2.28;;;;;;;27.73;41.55;101463.56;4796436;29;20028;-86
2022/10/26 11:25:58;;;;;;;6.47;1.90;;;;;;;28.06;40.42;101463.78;4801900;29;20107;-87
2022/10/26 11:28:32;;;;;;;6.38;2.00;;;;;;;28.35;39.66;101475.22;4793612;29;20119;-87
2022/10/26 11:31:05;;;;;;;3.10;2.13;;;;;;;28.22;41.14;101472.91;4799837;29;20031;-86
2022/10/26 11:33:39;;;;;;;4.85;1.90;;;;;;;27.32;42.13;101479.47;4792514;29;20073;-86
2022/10/26 11:36:13;;;;;;;4.03;1.63;;;;;;;26.33;44.90;101479.28;4782645;29;20038;-86
2022/10/26 11:38:47;;;;;;;6.25;2.00;;;;;;;26.86;44.50;101472.34;4786226;29;20046;-86
2022/10/26 11:41:20;;;;;;;3.88;2.08;;;;;;;27.34;42.66;101479.34;4793902;29;20472;-87